createdAt,value
2019-05-20T00:01:03.409Z,44.99
2019-05-20T00:03:33.192Z,39.14
2019-05-20T00:06:03.153Z,34.17
2019-05-20T00:08:33.036Z,27.19
2019-05-20T00:11:02.828Z,31.70
2019-05-20T00:13:32.660Z,34.17
2019-05-20T00:16:02.487Z,32.61
2019-05-20T00:18:32.253Z,38.45
2019-05-20T00:21:02.115Z,39.14
2019-05-20T00:23:31.865Z,41.17
2019-05-20T00:26:01.678Z,42.30
2019-05-20T00:28:31.503Z,44.31
2019-05-20T00:31:01.282Z,47.48
2019-05-20T00:33:31.077Z,46.58
2019-05-20T00:36:00.775Z,47.48
2019-05-20T00:38:32.232Z,47.48
2019-05-20T00:41:02.083Z,48.14
2019-05-20T00:43:33.479Z,45.44
2019-05-20T00:46:03.287Z,32.61
2019-05-20T00:48:33.095Z,24.02
2019-05-20T00:51:02.941Z,25.17
2019-05-20T00:53:32.709Z,0.00
2019-05-20T00:56:02.472Z,11.62
2019-05-20T00:58:32.341Z,2.58
2019-05-20T01:01:02.154Z,0.00
2019-05-20T01:03:31.938Z,0.00
2019-05-20T01:06:01.835Z,0.00
2019-05-20T01:08:31.597Z,0.00
2019-05-20T01:11:01.438Z,0.00
2019-05-20T01:13:31.465Z,0.00
2019-05-20T01:16:01.263Z,3.06
2019-05-20T01:18:31.039Z,8.46
2019-05-20T01:21:00.887Z,9.58
2019-05-20T01:23:30.661Z,13.43
2019-05-20T01:26:00.452Z,15.46
2019-05-20T01:28:30.270Z,15.91
2019-05-20T01:31:00.076Z,7.34
2019-05-20T01:33:31.433Z,0.00
2019-05-20T01:36:01.342Z,0.00
2019-05-20T01:38:31.117Z,0.00
2019-05-20T01:41:00.889Z,0.00
2019-05-20T01:43:30.768Z,0.00
2019-05-20T01:46:00.554Z,0.00
2019-05-20T01:48:30.389Z,0.00
2019-05-20T01:51:00.261Z,0.00
2019-05-20T01:53:30.010Z,0.00
2019-05-20T01:55:59.775Z,0.00
2019-05-20T01:58:29.673Z,0.00
2019-05-20T02:00:59.454Z,0.00
2019-05-20T02:03:32.067Z,0.00
2019-05-20T02:06:00.750Z,0.00
2019-05-20T02:08:30.563Z,0.00
2019-05-20T02:11:00.336Z,0.00
2019-05-20T02:13:48.218Z,0.00
2019-05-20T02:16:18.480Z,0.00
2019-05-20T02:18:48.237Z,0.00
2019-05-20T02:21:18.128Z,0.00
2019-05-20T02:23:47.889Z,0.00
2019-05-20T02:26:17.674Z,0.00
2019-05-20T02:28:47.497Z,0.00
2019-05-20T02:31:17.276Z,0.00
2019-05-20T02:33:52.436Z,0.00
2019-05-20T02:36:18.575Z,0.00
2019-05-20T02:38:48.360Z,0.00
2019-05-20T02:41:18.163Z,0.00
2019-05-20T02:43:47.951Z,0.00
2019-05-20T02:46:17.750Z,0.00
2019-05-20T02:48:47.595Z,0.00
2019-05-20T02:51:18.962Z,0.00
2019-05-20T02:53:48.750Z,0.00
2019-05-20T02:56:18.523Z,0.00
2019-05-20T02:58:48.364Z,0.00
2019-05-20T03:01:21.858Z,0.00
2019-05-20T03:04:07.954Z,0.00
2019-05-20T03:06:21.610Z,0.00
2019-05-20T03:08:51.378Z,0.00
2019-05-20T03:11:21.149Z,0.00
2019-05-20T03:13:50.875Z,0.00
2019-05-20T03:16:20.646Z,0.00
2019-05-20T03:18:50.424Z,0.00
2019-05-20T03:21:20.289Z,0.00
2019-05-20T03:23:50.075Z,0.00
2019-05-20T03:26:19.845Z,0.00
2019-05-20T03:28:49.708Z,1.92
2019-05-20T03:31:19.535Z,1.46
2019-05-20T03:33:49.356Z,5.75
2019-05-20T03:36:19.200Z,10.51
2019-05-20T03:38:49.068Z,1.46
2019-05-20T03:41:40.605Z,0.34
2019-05-20T03:44:12.216Z,1.46
2019-05-20T03:46:46.082Z,0.00
2019-05-20T03:49:17.050Z,0.00
2019-05-20T03:51:47.409Z,0.00
2019-05-20T03:54:17.168Z,0.00
2019-05-20T03:56:53.569Z,0.00
2019-05-20T03:59:24.287Z,0.00
2019-05-20T04:01:54.230Z,0.00
2019-05-20T04:04:31.000Z,0.00
2019-05-20T04:07:00.842Z,0.00
2019-05-20T04:09:30.620Z,0.00
2019-05-20T04:12:00.502Z,0.00
2019-05-20T04:14:30.355Z,0.00
2019-05-20T04:17:00.414Z,0.00
2019-05-20T04:19:30.234Z,0.00
2019-05-20T04:22:00.017Z,0.00
2019-05-20T04:24:29.798Z,0.00
2019-05-20T04:27:00.190Z,0.00
2019-05-20T04:29:30.054Z,0.00
2019-05-20T04:32:00.709Z,1.46
2019-05-20T04:34:31.097Z,3.72
2019-05-20T04:37:00.915Z,4.63
2019-05-20T04:39:30.753Z,17.03
2019-05-20T04:42:00.572Z,23.35
2019-05-20T04:44:30.937Z,32.16
2019-05-20T04:47:00.751Z,47.03
2019-05-20T04:49:30.547Z,61.43
2019-05-20T04:52:00.329Z,75.81
2019-05-20T04:54:30.683Z,86.37
2019-05-20T04:57:00.483Z,93.98
2019-05-20T04:59:30.643Z,100.00
2019-05-20T05:02:00.533Z,100.00
2019-05-20T05:04:30.327Z,100.00
2019-05-20T05:07:00.140Z,100.00
2019-05-20T05:09:31.386Z,100.00
2019-05-20T05:12:01.891Z,100.00
2019-05-20T05:14:31.675Z,100.00
2019-05-20T05:17:01.539Z,96.47
2019-05-20T05:19:31.335Z,93.78
2019-05-20T05:22:00.966Z,89.05
2019-05-20T05:24:30.717Z,100.00
2019-05-20T05:27:01.497Z,100.00
2019-05-20T05:29:31.313Z,100.00
2019-05-20T05:32:01.936Z,100.00
2019-05-20T05:34:31.847Z,100.00
2019-05-20T05:37:01.613Z,100.00
2019-05-20T05:39:31.394Z,100.00
2019-05-20T05:42:01.384Z,100.00
2019-05-20T05:44:31.264Z,100.00
2019-05-20T05:47:01.946Z,100.00
2019-05-20T05:49:31.802Z,100.00
2019-05-20T05:52:01.530Z,100.00
2019-05-20T05:54:32.232Z,100.00
2019-05-20T05:57:02.131Z,100.00
2019-05-20T05:59:33.114Z,100.00
2019-05-20T06:02:02.826Z,100.00
2019-05-20T06:04:33.034Z,100.00
2019-05-20T06:07:05.273Z,100.00
2019-05-20T06:09:35.198Z,100.00
2019-05-20T06:12:04.847Z,100.00
2019-05-20T06:14:36.336Z,100.00
2019-05-20T06:17:06.112Z,100.00
2019-05-20T06:19:38.127Z,100.00
2019-05-20T06:22:07.911Z,100.00
2019-05-20T06:24:37.757Z,100.00
2019-05-20T06:27:07.350Z,100.00
2019-05-20T06:29:37.106Z,100.00
2019-05-20T06:32:06.898Z,100.00
2019-05-20T06:34:42.760Z,100.00
2019-05-20T06:37:14.175Z,100.00
2019-05-20T06:39:44.719Z,100.00
2019-05-20T06:42:15.430Z,100.00
2019-05-20T06:44:52.537Z,100.00
2019-05-20T06:47:20.710Z,100.00
2019-05-20T06:49:50.529Z,100.00
2019-05-20T06:52:34.880Z,100.00
2019-05-20T06:54:54.258Z,100.00
2019-05-20T06:57:24.941Z,100.00
2019-05-20T06:59:54.756Z,100.00
2019-05-20T07:02:28.518Z,100.00
2019-05-20T07:05:01.148Z,100.00
2019-05-20T07:07:33.238Z,100.00
2019-05-20T07:10:03.027Z,100.00
2019-05-20T07:12:41.099Z,100.00
2019-05-20T07:15:12.400Z,100.00
2019-05-20T07:17:42.224Z,100.00
2019-05-20T07:20:12.955Z,100.00
2019-05-20T07:22:55.090Z,100.00
2019-05-20T07:25:14.226Z,100.00
2019-05-20T07:27:46.492Z,100.00
2019-05-20T07:30:16.621Z,100.00
2019-05-20T07:32:46.464Z,100.00
2019-05-20T07:35:29.697Z,100.00
2019-05-20T07:37:50.884Z,100.00
2019-05-20T07:40:32.711Z,100.00
2019-05-20T07:43:03.701Z,100.00
2019-05-20T07:45:35.124Z,100.00
2019-05-20T07:48:05.963Z,100.00
2019-05-20T07:50:37.780Z,0.00
2019-05-20T07:53:08.110Z,0.00
2019-05-20T07:55:43.996Z,100.00
2019-05-20T07:58:13.986Z,100.00
2019-05-20T08:00:43.825Z,100.00
2019-05-20T08:03:13.617Z,100.00
2019-05-20T08:05:43.409Z,100.00
2019-05-20T08:08:13.223Z,100.00
2019-05-20T08:10:42.990Z,100.00
2019-05-20T08:13:12.877Z,100.00
2019-05-20T08:15:42.685Z,100.00
2019-05-20T08:18:19.963Z,100.00
2019-05-20T08:20:47.408Z,100.00
2019-05-20T08:23:18.809Z,100.00
2019-05-20T08:25:51.821Z,100.00
2019-05-20T08:28:21.534Z,100.00
2019-05-20T08:30:51.425Z,100.00
2019-05-20T08:33:21.237Z,100.00
2019-05-20T08:35:50.967Z,100.00
2019-05-20T08:38:20.621Z,100.00
2019-05-20T08:40:53.985Z,100.00
2019-05-20T08:43:26.943Z,100.00
2019-05-20T08:45:56.700Z,0.00
2019-05-20T08:48:27.041Z,0.00
2019-05-20T08:50:56.811Z,100.00
2019-05-20T08:53:26.602Z,100.00
2019-05-20T08:55:56.440Z,0.00
2019-05-20T08:58:26.203Z,0.00
2019-05-20T09:00:57.085Z,0.00
2019-05-20T09:03:30.306Z,0.00
2019-05-20T09:05:59.379Z,0.00
2019-05-20T09:08:29.167Z,0.00
2019-05-20T09:11:00.588Z,0.00
2019-05-20T09:13:30.466Z,0.00
2019-05-20T09:16:01.035Z,0.00
2019-05-20T09:18:32.697Z,0.00
2019-05-20T09:21:02.679Z,0.00
2019-05-20T09:23:32.519Z,0.00
2019-05-20T09:26:02.463Z,0.00
2019-05-20T09:28:33.021Z,0.00
2019-05-20T09:31:02.809Z,0.00
2019-05-20T09:33:32.951Z,0.00
2019-05-20T09:36:04.039Z,0.00
2019-05-20T09:38:36.826Z,0.00
2019-05-20T09:41:05.120Z,0.00
2019-05-20T09:43:35.905Z,15.22
2019-05-20T09:46:08.201Z,4.62
2019-05-20T09:48:37.547Z,0.00
2019-05-20T09:51:08.065Z,0.00
2019-05-20T09:53:37.802Z,0.00
2019-05-20T09:56:07.586Z,0.00
2019-05-20T09:58:37.179Z,2.55
2019-05-20T10:01:06.919Z,17.30
2019-05-20T10:03:37.198Z,22.30
2019-05-20T10:06:09.742Z,38.45
2019-05-20T10:08:44.816Z,41.67
2019-05-20T10:11:11.135Z,29.65
2019-05-20T10:13:41.003Z,32.00
2019-05-20T10:16:10.770Z,12.58
2019-05-20T10:18:41.934Z,0.00
2019-05-20T10:21:12.446Z,0.00
2019-05-20T10:23:42.574Z,0.00
2019-05-20T10:26:12.352Z,0.00
2019-05-20T10:28:47.048Z,0.00
2019-05-20T10:31:17.980Z,0.00
2019-05-20T10:33:47.795Z,0.00
2019-05-20T10:36:19.773Z,0.00
2019-05-20T10:38:58.454Z,0.00
2019-05-20T10:41:20.907Z,0.00
2019-05-20T10:43:50.950Z,0.00
2019-05-20T10:46:20.896Z,0.00
2019-05-20T10:48:52.196Z,0.00
2019-05-20T10:51:22.326Z,0.00
2019-05-20T10:53:56.143Z,0.00
2019-05-20T10:56:26.876Z,0.00
2019-05-20T10:58:56.609Z,0.00
2019-05-20T11:01:26.608Z,0.00
2019-05-20T11:03:56.493Z,0.00
2019-05-20T11:06:26.210Z,0.00
2019-05-20T11:08:56.389Z,0.00
2019-05-20T11:11:26.219Z,0.00
2019-05-20T11:13:56.061Z,0.00
2019-05-20T11:16:26.821Z,0.00
2019-05-20T11:18:56.853Z,0.00
2019-05-20T11:21:27.438Z,0.00
2019-05-20T11:24:00.158Z,0.00
2019-05-20T11:26:29.763Z,0.00
2019-05-20T11:29:00.508Z,0.00
2019-05-20T11:31:30.285Z,0.00
2019-05-20T11:34:00.051Z,0.00
2019-05-20T11:36:29.861Z,0.00
2019-05-20T11:39:01.996Z,11.10
2019-05-20T11:41:52.698Z,64.79
2019-05-20T11:44:04.994Z,64.79
2019-05-20T11:46:35.287Z,83.71
2019-05-20T11:49:07.187Z,100.00
2019-05-20T11:51:37.563Z,100.00
2019-05-20T11:54:07.429Z,100.00
2019-05-20T11:56:37.348Z,100.00
2019-05-20T11:59:09.787Z,100.00
2019-05-20T12:01:40.417Z,100.00
2019-05-20T12:04:10.391Z,100.00
2019-05-20T12:06:41.091Z,100.00
2019-05-20T12:09:10.839Z,100.00
2019-05-20T12:11:40.669Z,100.00
2019-05-20T12:14:12.654Z,100.00
2019-05-20T12:16:42.362Z,100.00
2019-05-20T12:19:12.154Z,100.00
2019-05-20T12:21:44.474Z,100.00
2019-05-20T12:24:14.237Z,100.00
2019-05-20T12:26:44.663Z,100.00
2019-05-20T12:29:14.523Z,100.00
2019-05-20T12:31:44.386Z,100.00
2019-05-20T12:34:14.196Z,100.00
2019-05-20T12:36:43.972Z,100.00
2019-05-20T12:39:13.874Z,100.00
2019-05-20T12:41:43.658Z,100.00
2019-05-20T12:44:13.463Z,100.00
2019-05-20T12:46:43.222Z,100.00
2019-05-20T12:49:13.161Z,100.00
2019-05-20T12:51:43.084Z,100.00
2019-05-20T12:54:14.336Z,100.00
2019-05-20T12:56:45.971Z,100.00
2019-05-20T12:59:15.462Z,100.00
2019-05-20T13:01:45.247Z,100.00
2019-05-20T13:04:15.568Z,100.00
2019-05-20T13:06:45.683Z,81.10
2019-05-20T13:09:16.805Z,63.32
2019-05-20T13:11:47.583Z,24.66
2019-05-20T13:14:17.700Z,0.00
2019-05-20T13:16:47.498Z,12.00
2019-05-20T13:19:17.163Z,51.06
2019-05-20T13:21:47.555Z,58.95
2019-05-20T13:24:18.341Z,73.24
2019-05-20T13:26:48.109Z,83.13
2019-05-20T13:29:18.676Z,100.00
2019-05-20T13:31:48.471Z,100.00
2019-05-20T13:34:18.732Z,100.00
2019-05-20T13:36:49.483Z,100.00
2019-05-20T13:39:19.867Z,100.00
2019-05-20T13:41:50.570Z,100.00
2019-05-20T13:44:20.713Z,100.00
2019-05-20T13:46:51.172Z,100.00
2019-05-20T13:49:22.305Z,55.43
2019-05-20T13:51:54.228Z,92.71
2019-05-20T13:54:24.052Z,60.68
2019-05-20T13:56:56.839Z,38.45
2019-05-20T13:59:28.993Z,51.06
2019-05-20T14:01:59.873Z,70.62
2019-05-20T14:04:29.782Z,14.64
2019-05-20T14:06:59.500Z,0.00
2019-05-20T14:09:30.894Z,0.00
2019-05-20T14:12:00.623Z,0.00
2019-05-20T14:14:30.613Z,0.00
2019-05-20T14:17:00.409Z,0.00
2019-05-20T14:19:31.849Z,0.00
2019-05-20T14:22:03.708Z,0.00
2019-05-20T14:24:33.389Z,0.00
2019-05-20T14:27:03.273Z,0.00
2019-05-20T14:29:33.106Z,100.00
2019-05-20T14:32:03.349Z,0.00
2019-05-20T14:34:37.156Z,0.00
2019-05-20T14:37:07.252Z,0.00
2019-05-20T14:39:37.606Z,0.00
2019-05-20T14:42:07.514Z,100.00
2019-05-20T14:44:37.228Z,0.00
2019-05-20T14:47:08.334Z,0.00
2019-05-20T14:49:38.715Z,0.00
2019-05-20T14:52:08.521Z,0.00
2019-05-20T14:54:38.228Z,0.00
2019-05-20T14:57:08.013Z,0.00
2019-05-20T14:59:37.775Z,0.00
2019-05-20T15:02:07.609Z,0.00
2019-05-20T15:04:37.446Z,0.00
2019-05-20T15:07:07.265Z,0.00
2019-05-20T15:09:37.232Z,0.00
2019-05-20T15:12:06.982Z,0.00
2019-05-20T15:14:36.735Z,0.00
2019-05-20T15:17:06.609Z,0.00
2019-05-20T15:19:38.857Z,0.00
2019-05-20T15:22:10.639Z,0.00
2019-05-20T15:24:41.255Z,0.00
2019-05-20T15:27:11.076Z,0.00
2019-05-20T15:29:41.351Z,0.00
2019-05-20T15:32:11.167Z,0.00
2019-05-20T15:34:40.943Z,0.00
2019-05-20T15:37:10.951Z,0.00
2019-05-20T15:39:41.981Z,0.00
2019-05-20T15:42:13.031Z,0.00
2019-05-20T15:44:43.039Z,0.00
2019-05-20T15:47:14.005Z,0.00
2019-05-20T15:49:46.193Z,0.00
2019-05-20T15:52:15.948Z,0.00
2019-05-20T15:54:45.776Z,0.00
2019-05-20T15:57:16.393Z,0.00
2019-05-20T15:59:47.031Z,100.00
2019-05-20T16:02:18.031Z,100.00
2019-05-20T16:04:50.806Z,100.00
2019-05-20T16:07:20.687Z,100.00
2019-05-20T16:09:50.650Z,100.00
2019-05-20T16:12:23.558Z,100.00
2019-05-20T16:14:56.247Z,100.00
2019-05-20T16:17:25.994Z,100.00
2019-05-20T16:19:55.816Z,100.00
2019-05-20T16:22:28.889Z,100.00
2019-05-20T16:25:02.364Z,100.00
2019-05-20T16:27:33.021Z,100.00
2019-05-20T16:30:06.749Z,100.00
2019-05-20T16:32:34.731Z,100.00
2019-05-20T16:35:06.037Z,100.00
2019-05-20T16:37:35.743Z,100.00
2019-05-20T16:40:12.063Z,100.00
2019-05-20T16:42:42.879Z,100.00
2019-05-20T16:45:15.274Z,100.00
2019-05-20T16:47:45.028Z,100.00
2019-05-20T16:50:14.924Z,100.00
2019-05-20T16:52:45.013Z,100.00
2019-05-20T16:55:20.590Z,100.00
2019-05-20T16:57:50.520Z,100.00
2019-05-20T17:00:31.290Z,100.00
2019-05-20T17:02:54.006Z,100.00
2019-05-20T17:05:23.979Z,100.00
2019-05-20T17:07:53.807Z,100.00
2019-05-20T17:10:28.839Z,100.00
2019-05-20T17:12:58.635Z,100.00
2019-05-20T17:15:29.020Z,100.00
2019-05-20T17:18:00.608Z,100.00
2019-05-20T17:20:30.655Z,100.00
2019-05-20T17:23:01.170Z,100.00
2019-05-20T17:25:33.179Z,100.00
2019-05-20T17:28:04.796Z,100.00
2019-05-20T17:30:44.826Z,100.00
2019-05-20T17:33:06.318Z,100.00
2019-05-20T17:35:36.020Z,100.00
2019-05-20T17:38:06.004Z,100.00
2019-05-20T17:40:36.898Z,100.00
2019-05-20T17:43:06.868Z,100.00
2019-05-20T17:45:36.674Z,100.00
2019-05-20T17:48:07.634Z,100.00
2019-05-20T17:50:37.659Z,100.00
2019-05-20T17:53:07.394Z,100.00
2019-05-20T17:55:41.609Z,100.00
2019-05-20T17:58:11.545Z,100.00
2019-05-20T18:00:41.632Z,100.00
2019-05-20T18:03:12.735Z,100.00
2019-05-20T18:05:43.593Z,100.00
2019-05-20T18:08:13.422Z,100.00
2019-05-20T18:10:46.397Z,100.00
2019-05-20T18:13:16.187Z,100.00
2019-05-20T18:15:46.091Z,100.00
2019-05-20T18:18:16.018Z,100.00
2019-05-20T18:20:46.909Z,100.00
2019-05-20T18:23:17.249Z,100.00
2019-05-20T18:25:47.555Z,100.00
2019-05-20T18:28:17.256Z,100.00
2019-05-20T18:30:47.565Z,100.00
2019-05-20T18:33:22.610Z,100.00
2019-05-20T18:35:53.138Z,100.00
2019-05-20T18:38:23.383Z,100.00
2019-05-20T18:40:58.245Z,100.00
2019-05-20T18:43:29.272Z,100.00
2019-05-20T18:46:01.463Z,100.00
2019-05-20T18:48:31.607Z,100.00
2019-05-20T18:51:03.375Z,100.00
2019-05-20T18:53:33.804Z,100.00
2019-05-20T18:56:04.271Z,100.00
2019-05-20T18:58:34.654Z,100.00
2019-05-20T19:01:07.575Z,100.00
2019-05-20T19:03:37.615Z,100.00
2019-05-20T19:06:08.626Z,100.00
2019-05-20T19:08:38.841Z,100.00
2019-05-20T19:11:09.880Z,100.00
2019-05-20T19:13:39.697Z,100.00
2019-05-20T19:16:11.742Z,100.00
2019-05-20T19:18:45.472Z,100.00
2019-05-20T19:21:16.905Z,93.98
2019-05-20T19:23:47.739Z,31.70
2019-05-20T19:26:24.824Z,81.19
2019-05-20T19:28:50.610Z,82.32
2019-05-20T19:31:20.403Z,74.22
2019-05-20T19:33:53.747Z,69.96
2019-05-20T19:36:25.165Z,64.58
2019-05-20T19:38:56.506Z,53.55
2019-05-20T19:41:27.943Z,46.58
2019-05-20T19:43:58.427Z,48.59
2019-05-20T19:46:28.186Z,47.48
2019-05-20T19:48:59.367Z,47.03
2019-05-20T19:51:29.238Z,45.44
2019-05-20T19:53:59.964Z,37.34
2019-05-20T19:56:29.789Z,34.87
2019-05-20T19:59:07.661Z,24.71
2019-05-20T20:01:38.144Z,16.12
2019-05-20T20:04:08.444Z,19.75
2019-05-20T20:06:38.227Z,8.92
2019-05-20T20:09:10.265Z,0.00
2019-05-20T20:11:40.125Z,0.00
2019-05-20T20:14:09.866Z,0.00
2019-05-20T20:16:39.706Z,0.00
2019-05-20T20:19:09.957Z,0.00
2019-05-20T20:21:40.107Z,0.00
2019-05-20T20:24:09.875Z,0.00
2019-05-20T20:26:39.679Z,0.00
2019-05-20T20:29:11.224Z,0.00
2019-05-20T20:31:40.973Z,0.00
2019-05-20T20:34:13.144Z,0.00
2019-05-20T20:36:42.945Z,0.00
2019-05-20T20:39:12.727Z,0.00
2019-05-20T20:41:42.769Z,0.00
2019-05-20T20:44:12.606Z,0.00
2019-05-20T20:46:42.302Z,0.00
2019-05-20T20:49:14.784Z,0.00
2019-05-20T20:51:43.649Z,0.00
2019-05-20T20:54:13.406Z,0.00
2019-05-20T20:56:45.665Z,0.00
2019-05-20T20:59:15.346Z,0.00
2019-05-20T21:01:45.094Z,0.00
2019-05-20T21:04:14.706Z,0.00
2019-05-20T21:06:44.586Z,0.00
2019-05-20T21:09:14.324Z,0.00
2019-05-20T21:11:44.058Z,0.00
2019-05-20T21:14:13.784Z,0.00
2019-05-20T21:16:43.490Z,0.00
2019-05-20T21:19:13.226Z,0.00
2019-05-20T21:21:43.026Z,0.00
2019-05-20T21:24:14.665Z,0.00
2019-05-20T21:26:44.886Z,0.00
2019-05-20T21:29:14.448Z,0.00
2019-05-20T21:31:44.107Z,0.00
2019-05-20T21:34:13.905Z,0.00
2019-05-20T21:36:47.885Z,0.00
2019-05-20T21:39:14.942Z,0.00
2019-05-20T21:41:45.197Z,0.00
2019-05-20T21:44:15.287Z,0.00
2019-05-20T21:46:45.394Z,0.00
2019-05-20T21:49:15.147Z,0.00
2019-05-20T21:51:45.808Z,0.00
2019-05-20T21:54:16.824Z,0.00
2019-05-20T21:56:49.900Z,0.00
2019-05-20T21:59:18.063Z,0.00
2019-05-20T22:01:47.813Z,0.00
2019-05-20T22:04:17.636Z,0.00
2019-05-20T22:06:47.318Z,0.00
2019-05-20T22:09:17.870Z,0.00
2019-05-20T22:11:57.390Z,0.00
2019-05-20T22:14:27.138Z,0.00
2019-05-20T22:16:56.721Z,0.00
2019-05-20T22:19:26.463Z,0.00
2019-05-20T22:22:01.399Z,0.00
2019-05-20T22:24:31.419Z,0.00
2019-05-20T22:27:01.239Z,0.00
2019-05-20T22:29:31.044Z,0.00
2019-05-20T22:32:00.906Z,0.00
2019-05-20T22:34:37.462Z,0.00
2019-05-20T22:37:22.104Z,0.00
2019-05-20T22:39:56.776Z,0.00
2019-05-20T22:42:26.592Z,0.00
2019-05-20T22:44:59.099Z,0.00
2019-05-20T22:47:31.277Z,0.00
2019-05-20T22:50:01.848Z,0.00
2019-05-20T22:52:32.958Z,0.00
2019-05-20T22:55:02.723Z,0.00
2019-05-20T22:57:35.656Z,0.00
2019-05-20T23:00:06.174Z,0.00
2019-05-20T23:02:35.944Z,0.00
2019-05-20T23:05:05.768Z,0.00
2019-05-20T23:07:36.107Z,0.00
2019-05-20T23:10:06.738Z,0.00
2019-05-20T23:12:37.387Z,0.00
2019-05-20T23:15:08.622Z,0.00
2019-05-20T23:17:40.004Z,0.00
2019-05-20T23:20:10.729Z,0.00
2019-05-20T23:22:40.501Z,0.00
2019-05-20T23:25:12.224Z,0.00
2019-05-20T23:27:42.120Z,0.00
2019-05-20T23:30:11.976Z,0.00
2019-05-20T23:32:42.668Z,0.00
2019-05-20T23:35:14.311Z,0.00
2019-05-20T23:37:44.323Z,0.00
2019-05-20T23:40:16.522Z,0.00
2019-05-20T23:42:47.119Z,0.00
2019-05-20T23:45:18.324Z,0.00
2019-05-20T23:47:50.964Z,0.00
2019-05-20T23:50:20.545Z,0.00
2019-05-20T23:52:52.215Z,0.00
2019-05-20T23:55:21.903Z,0.00
2019-05-20T23:57:53.942Z,0.00
